createdAt,value
2022-11-17T00:02:08.619Z,16.82
2022-11-17T00:04:35.364Z,16.80
2022-11-17T00:07:02.174Z,16.76
2022-11-17T00:09:28.934Z,16.76
2022-11-17T00:12:16.968Z,16.75
2022-11-17T00:14:45.917Z,16.74
2022-11-17T00:17:13.683Z,16.72
2022-11-17T00:19:59.178Z,16.70
2022-11-17T00:22:26.595Z,16.69
2022-11-17T00:24:53.268Z,16.67
2022-11-17T00:27:20.106Z,16.65
2022-11-17T00:29:47.286Z,16.68
2022-11-17T00:32:34.290Z,16.69
2022-11-17T00:35:01.235Z,16.65
2022-11-17T00:37:30.265Z,16.64
2022-11-17T00:40:00.766Z,16.65
2022-11-17T00:42:28.081Z,16.61
2022-11-17T00:44:54.958Z,16.59
2022-11-17T00:47:21.847Z,16.58
2022-11-17T00:49:49.036Z,16.57
2022-11-17T00:52:15.876Z,16.56
2022-11-17T00:54:42.572Z,16.56
2022-11-17T00:57:09.382Z,16.58
2022-11-17T00:59:36.120Z,16.53
2022-11-17T01:02:03.062Z,16.51
2022-11-17T01:04:29.904Z,16.50
2022-11-17T01:06:56.752Z,16.49
2022-11-17T01:09:24.242Z,16.52
2022-11-17T01:11:53.130Z,16.52
2022-11-17T01:14:25.085Z,16.52
2022-11-17T01:16:52.179Z,16.56
2022-11-17T01:19:19.519Z,16.57
2022-11-17T01:21:46.972Z,16.59
2022-11-17T01:24:16.408Z,16.50
2022-11-17T01:26:43.662Z,16.46
2022-11-17T01:29:13.080Z,16.47
2022-11-17T01:31:43.283Z,16.51
2022-11-17T01:34:10.554Z,16.48
2022-11-17T01:36:58.578Z,16.47
2022-11-17T01:39:27.609Z,16.42
2022-11-17T01:41:55.380Z,16.44
2022-11-17T01:44:53.227Z,16.41
2022-11-17T01:47:22.112Z,16.40
2022-11-17T01:49:52.173Z,16.43
2022-11-17T01:52:19.246Z,16.36
2022-11-17T01:54:48.845Z,16.39
2022-11-17T01:57:43.233Z,16.38
2022-11-17T02:00:11.611Z,16.37
2022-11-17T02:02:41.074Z,16.40
2022-11-17T02:05:26.406Z,16.38
2022-11-17T02:07:55.381Z,16.39
2022-11-17T02:10:22.286Z,16.38
2022-11-17T02:12:49.753Z,16.39
2022-11-17T02:15:16.865Z,16.34
2022-11-17T02:17:44.345Z,16.35
2022-11-17T02:20:36.258Z,16.38
2022-11-17T02:23:35.705Z,16.42
2022-11-17T02:26:31.458Z,16.44
2022-11-17T02:29:09.573Z,16.36
2022-11-17T02:31:52.181Z,16.40
2022-11-17T02:34:18.990Z,16.37
2022-11-17T02:36:58.996Z,16.32
2022-11-17T02:39:28.349Z,16.39
2022-11-17T02:42:01.337Z,16.32
2022-11-17T02:44:45.475Z,16.33
2022-11-17T02:47:24.388Z,16.40
2022-11-17T02:50:01.032Z,16.43
2022-11-17T02:52:30.213Z,16.38
2022-11-17T02:55:05.569Z,16.42
2022-11-17T02:57:35.538Z,16.33
2022-11-17T03:00:09.747Z,16.33
2022-11-17T03:02:58.151Z,16.30
2022-11-17T03:05:34.594Z,16.28
2022-11-17T03:08:13.632Z,16.36
2022-11-17T03:11:02.940Z,16.41
2022-11-17T03:13:54.708Z,16.34
2022-11-17T03:16:57.309Z,16.32
2022-11-17T03:19:37.994Z,16.35
2022-11-17T03:22:23.379Z,16.32
2022-11-17T03:24:52.880Z,16.25
2022-11-17T03:27:25.561Z,16.29
2022-11-17T03:29:56.267Z,16.29
2022-11-17T03:32:25.054Z,16.26
2022-11-17T03:35:06.105Z,16.28
2022-11-17T03:37:36.638Z,16.28
2022-11-17T03:40:08.783Z,16.25
2022-11-17T03:42:39.410Z,16.24
2022-11-17T03:45:06.696Z,16.25
2022-11-17T03:47:35.051Z,16.26
2022-11-17T03:50:16.648Z,16.24
2022-11-17T03:52:45.677Z,16.20
2022-11-17T03:55:14.029Z,16.17
2022-11-17T03:57:51.829Z,16.17
2022-11-17T04:00:20.008Z,16.29
2022-11-17T04:02:53.677Z,16.25
2022-11-17T04:05:20.405Z,16.24
2022-11-17T04:07:49.128Z,16.20
2022-11-17T04:10:22.184Z,16.31
2022-11-17T04:13:08.235Z,16.25
2022-11-17T04:15:54.041Z,16.23
2022-11-17T04:18:22.015Z,16.21
2022-11-17T04:20:56.048Z,16.15
2022-11-17T04:23:24.586Z,16.15
2022-11-17T04:26:12.314Z,16.19
2022-11-17T04:28:43.949Z,16.13
2022-11-17T04:31:13.978Z,16.10
2022-11-17T04:33:45.440Z,16.12
2022-11-17T04:36:14.160Z,16.12
2022-11-17T04:38:42.995Z,16.14
2022-11-17T04:41:30.017Z,16.11
2022-11-17T04:43:57.895Z,16.12
2022-11-17T04:46:25.849Z,16.17
2022-11-17T04:48:56.969Z,16.11
2022-11-17T04:51:24.866Z,16.14
2022-11-17T04:53:52.389Z,16.12
2022-11-17T04:56:20.475Z,16.11
2022-11-17T04:58:47.591Z,16.09
2022-11-17T05:01:16.570Z,16.07
2022-11-17T05:03:43.209Z,16.11
2022-11-17T05:06:18.660Z,16.10
2022-11-17T05:08:45.596Z,16.10
2022-11-17T05:11:32.403Z,16.08
2022-11-17T05:13:59.678Z,16.07
2022-11-17T05:16:45.477Z,16.11
2022-11-17T05:19:18.474Z,16.05
2022-11-17T05:21:45.390Z,16.09
2022-11-17T05:24:14.397Z,16.08
2022-11-17T05:26:42.899Z,16.13
2022-11-17T05:29:11.711Z,16.06
2022-11-17T05:31:38.923Z,16.10
2022-11-17T05:34:08.341Z,16.03
2022-11-17T05:36:35.567Z,16.11
2022-11-17T05:39:02.426Z,16.08
2022-11-17T05:41:29.257Z,16.08
2022-11-17T05:43:56.230Z,16.10
2022-11-17T05:46:23.549Z,16.09
2022-11-17T05:48:51.311Z,16.04
2022-11-17T05:51:20.426Z,16.03
2022-11-17T05:53:48.747Z,15.99
2022-11-17T05:56:25.302Z,16.02
2022-11-17T05:58:55.262Z,16.10
2022-11-17T06:01:23.092Z,16.15
2022-11-17T06:03:56.193Z,16.15
2022-11-17T06:06:23.449Z,16.11
2022-11-17T06:08:51.013Z,16.18
2022-11-17T06:11:19.094Z,16.06
2022-11-17T06:13:46.064Z,16.06
2022-11-17T06:16:16.280Z,16.01
2022-11-17T06:18:50.683Z,16.01
2022-11-17T06:21:17.982Z,15.93
2022-11-17T06:23:47.438Z,15.91
2022-11-17T06:26:14.961Z,15.89
2022-11-17T06:28:45.595Z,15.86
2022-11-17T06:31:13.339Z,15.92
2022-11-17T06:33:40.191Z,15.84
2022-11-17T06:36:08.790Z,15.89
2022-11-17T06:38:36.556Z,15.85
2022-11-17T06:41:08.893Z,15.88
2022-11-17T06:43:38.809Z,15.83
2022-11-17T06:46:06.068Z,15.81
2022-11-17T06:48:36.329Z,15.90
2022-11-17T06:51:05.190Z,15.92
2022-11-17T06:53:34.070Z,15.92
2022-11-17T06:56:11.861Z,15.99
2022-11-17T06:58:41.440Z,15.98
2022-11-17T07:01:11.396Z,16.05
2022-11-17T07:03:40.214Z,16.09
2022-11-17T07:06:08.998Z,16.15
2022-11-17T07:08:36.436Z,16.20
2022-11-17T07:11:05.431Z,16.24
2022-11-17T07:13:33.676Z,16.29
2022-11-17T07:16:23.758Z,16.34
2022-11-17T07:18:52.481Z,16.33
2022-11-17T07:21:19.465Z,16.38
2022-11-17T07:23:47.354Z,16.41
2022-11-17T07:26:14.510Z,16.49
2022-11-17T07:28:44.438Z,16.47
2022-11-17T07:31:12.553Z,16.49
2022-11-17T07:33:44.852Z,16.47
2022-11-17T07:36:21.758Z,16.53
2022-11-17T07:38:48.940Z,16.53
2022-11-17T07:41:21.594Z,16.60
2022-11-17T07:43:48.447Z,16.58
2022-11-17T07:46:15.483Z,16.59
2022-11-17T07:48:43.788Z,16.57
2022-11-17T07:51:14.191Z,16.62
2022-11-17T07:53:47.209Z,16.63
2022-11-17T07:56:14.485Z,16.67
2022-11-17T07:58:42.013Z,16.66
2022-11-17T08:01:14.715Z,16.65
2022-11-17T08:03:42.956Z,16.61
2022-11-17T08:06:14.872Z,16.67
2022-11-17T08:08:48.547Z,16.65
2022-11-17T08:11:19.666Z,16.69
2022-11-17T08:13:58.299Z,16.62
2022-11-17T08:16:36.147Z,16.57
2022-11-17T08:19:07.480Z,16.57
2022-11-17T08:21:38.660Z,16.52
2022-11-17T08:24:06.420Z,16.53
2022-11-17T08:26:36.536Z,16.51
2022-11-17T08:29:03.593Z,16.51
2022-11-17T08:31:33.117Z,16.46
2022-11-17T08:34:08.616Z,16.57
2022-11-17T08:36:38.922Z,16.69
2022-11-17T08:39:08.196Z,16.64
2022-11-17T08:41:40.902Z,16.57
2022-11-17T08:44:07.868Z,16.48
2022-11-17T08:46:34.791Z,16.45
2022-11-17T08:49:02.076Z,16.39
2022-11-17T08:51:33.600Z,16.37
2022-11-17T08:54:00.734Z,16.34
2022-11-17T08:56:29.978Z,16.40
2022-11-17T08:58:57.227Z,16.33
2022-11-17T09:01:24.123Z,16.26
2022-11-17T09:03:56.661Z,16.25
2022-11-17T09:06:27.881Z,16.36
2022-11-17T09:08:55.560Z,16.35
2022-11-17T09:11:22.960Z,16.44
2022-11-17T09:13:49.810Z,16.53
2022-11-17T09:16:23.964Z,16.57
2022-11-17T09:19:02.477Z,16.64
2022-11-17T09:21:36.952Z,16.69
2022-11-17T09:24:21.245Z,16.70
2022-11-17T09:26:48.560Z,16.72
2022-11-17T09:29:15.442Z,16.73
2022-11-17T09:31:45.275Z,16.75
2022-11-17T09:34:16.834Z,16.76
2022-11-17T09:36:46.190Z,16.78
2022-11-17T09:39:13.144Z,16.75
2022-11-17T09:41:46.345Z,16.84
2022-11-17T09:44:28.439Z,16.91
2022-11-17T09:47:01.535Z,16.83
2022-11-17T09:49:47.184Z,16.81
2022-11-17T09:52:52.723Z,16.88
2022-11-17T09:55:33.943Z,16.79
2022-11-17T09:58:06.131Z,16.77
2022-11-17T10:00:41.846Z,16.80
2022-11-17T10:03:21.268Z,16.80
2022-11-17T10:05:49.466Z,16.80
2022-11-17T10:08:28.831Z,16.87
2022-11-17T10:10:55.639Z,16.87
2022-11-17T10:13:28.053Z,16.90
2022-11-17T10:16:07.614Z,16.91
2022-11-17T10:18:42.823Z,16.97
2022-11-17T10:21:09.756Z,16.94
2022-11-17T10:23:47.153Z,16.99
2022-11-17T10:26:15.828Z,16.98
2022-11-17T10:28:44.619Z,16.99
2022-11-17T10:31:17.323Z,16.95
2022-11-17T10:33:51.719Z,16.99
2022-11-17T10:36:26.813Z,17.04
2022-11-17T10:38:56.051Z,17.03
2022-11-17T10:41:26.923Z,17.09
2022-11-17T10:44:13.522Z,17.07
2022-11-17T10:47:03.023Z,17.07
2022-11-17T10:49:35.394Z,17.13
2022-11-17T10:52:13.773Z,17.12
2022-11-17T10:54:41.062Z,17.09
2022-11-17T10:57:12.486Z,17.14
2022-11-17T10:59:43.629Z,17.16
2022-11-17T11:02:33.060Z,17.15
2022-11-17T11:05:17.260Z,17.20
2022-11-17T11:07:44.630Z,17.19
2022-11-17T11:10:17.573Z,17.24
2022-11-17T11:12:59.392Z,17.21
2022-11-17T11:15:34.545Z,17.25
2022-11-17T11:18:02.057Z,17.33
2022-11-17T11:20:48.278Z,17.37
2022-11-17T11:23:20.028Z,17.46
2022-11-17T11:26:11.594Z,17.49
2022-11-17T11:28:54.264Z,17.61
2022-11-17T11:31:36.553Z,17.72
2022-11-17T11:34:19.670Z,17.76
2022-11-17T11:37:04.001Z,17.78
2022-11-17T11:39:39.896Z,17.85
2022-11-17T11:42:34.664Z,17.87
2022-11-17T11:45:18.390Z,17.91
2022-11-17T11:48:01.195Z,17.94
2022-11-17T11:50:41.880Z,17.98
2022-11-17T11:53:18.925Z,18.01
2022-11-17T11:55:49.705Z,18.00
2022-11-17T11:58:23.872Z,17.90
2022-11-17T12:00:53.890Z,17.86
2022-11-17T12:03:28.539Z,17.83
2022-11-17T12:06:40.909Z,17.81
2022-11-17T12:09:48.733Z,17.78
2022-11-17T12:12:19.615Z,17.75
2022-11-17T12:15:21.946Z,17.67
2022-11-17T12:18:29.470Z,17.67
2022-11-17T12:21:01.324Z,17.69
2022-11-17T12:23:38.297Z,17.65
2022-11-17T12:26:05.559Z,17.65
2022-11-17T12:28:38.363Z,17.66
2022-11-17T12:31:32.156Z,17.70
2022-11-17T12:34:01.756Z,17.64
2022-11-17T12:36:32.158Z,17.68
2022-11-17T12:39:01.237Z,17.63
2022-11-17T12:41:49.259Z,17.64
2022-11-17T12:44:37.687Z,17.61
2022-11-17T12:47:14.138Z,17.62
2022-11-17T12:49:49.024Z,17.59
2022-11-17T12:52:27.083Z,17.61
2022-11-17T12:55:05.935Z,17.61
2022-11-17T12:57:34.335Z,17.58
2022-11-17T13:00:05.572Z,17.63
2022-11-17T13:02:47.597Z,17.63
2022-11-17T13:05:20.339Z,17.59
2022-11-17T13:07:47.304Z,17.65
2022-11-17T13:10:31.653Z,17.65
2022-11-17T13:13:20.642Z,17.67
2022-11-17T13:15:58.897Z,17.64
2022-11-17T13:18:36.479Z,17.68
2022-11-17T13:21:05.494Z,17.61
2022-11-17T13:23:33.754Z,17.68
2022-11-17T13:26:26.904Z,17.62
2022-11-17T13:29:24.279Z,17.68
2022-11-17T13:32:14.860Z,17.64
2022-11-17T13:34:52.549Z,17.63
2022-11-17T13:37:25.681Z,17.67
2022-11-17T13:39:58.882Z,17.70
2022-11-17T13:42:29.387Z,17.63
2022-11-17T13:44:59.254Z,17.62
2022-11-17T13:47:38.029Z,17.64
2022-11-17T13:50:26.835Z,17.74
2022-11-17T13:53:12.120Z,17.75
2022-11-17T13:55:48.394Z,17.72
2022-11-17T13:58:28.076Z,17.73
2022-11-17T14:00:57.835Z,17.76
2022-11-17T14:03:38.115Z,17.74
2022-11-17T14:06:07.857Z,17.76
2022-11-17T14:08:36.607Z,17.85
2022-11-17T14:11:12.003Z,17.78
2022-11-17T14:14:12.491Z,17.76
2022-11-17T14:16:41.680Z,17.86
2022-11-17T14:19:14.392Z,17.84
2022-11-17T14:22:27.557Z,17.83
2022-11-17T14:24:57.788Z,17.87
2022-11-17T14:27:27.674Z,17.85
2022-11-17T14:29:55.220Z,17.88
2022-11-17T14:32:22.015Z,17.81
2022-11-17T14:34:49.080Z,17.77
2022-11-17T14:37:16.165Z,17.76
2022-11-17T14:39:43.430Z,17.76
2022-11-17T14:42:13.860Z,17.80
2022-11-17T14:44:40.779Z,17.79
2022-11-17T14:47:07.859Z,17.81
2022-11-17T14:49:34.599Z,17.86
2022-11-17T14:52:02.753Z,17.80
2022-11-17T14:54:29.688Z,17.76
2022-11-17T14:56:56.550Z,17.74
2022-11-17T14:59:23.314Z,17.79
2022-11-17T15:01:50.044Z,17.77
2022-11-17T15:04:48.125Z,17.74
2022-11-17T15:07:03.735Z,17.78
2022-11-17T15:09:30.635Z,17.82
2022-11-17T15:11:57.540Z,17.80
2022-11-17T15:14:24.852Z,17.78
2022-11-17T15:16:52.255Z,17.74
2022-11-17T15:19:19.332Z,17.73
2022-11-17T15:21:46.128Z,17.76
2022-11-17T15:24:13.676Z,17.74
2022-11-17T15:26:40.842Z,17.76
2022-11-17T15:29:07.627Z,17.78
2022-11-17T15:31:34.840Z,17.74
2022-11-17T15:34:01.777Z,17.81
2022-11-17T15:36:28.526Z,17.85
2022-11-17T15:38:56.499Z,17.78
2022-11-17T15:41:25.454Z,17.77
2022-11-17T15:43:55.526Z,17.71
2022-11-17T15:46:22.791Z,17.72
2022-11-17T15:48:52.573Z,17.70
2022-11-17T15:51:24.698Z,17.77
2022-11-17T15:53:53.462Z,17.77
2022-11-17T15:56:28.692Z,17.75
2022-11-17T15:58:58.259Z,17.77
2022-11-17T16:01:25.057Z,17.76
2022-11-17T16:03:53.388Z,17.81
2022-11-17T16:06:20.703Z,17.82
2022-11-17T16:08:47.458Z,17.75
2022-11-17T16:11:14.204Z,17.70
2022-11-17T16:13:41.088Z,17.76
2022-11-17T16:16:12.267Z,17.79
2022-11-17T16:18:39.371Z,17.86
2022-11-17T16:21:11.850Z,17.78
2022-11-17T16:23:49.656Z,17.74
2022-11-17T16:26:18.155Z,17.72
2022-11-17T16:28:48.759Z,17.77
2022-11-17T16:31:24.793Z,17.75
2022-11-17T16:33:58.972Z,17.78
2022-11-17T16:36:35.844Z,17.73
2022-11-17T16:39:05.112Z,17.74
2022-11-17T16:41:34.416Z,17.71
2022-11-17T16:44:01.935Z,17.76
2022-11-17T16:46:30.593Z,17.72
2022-11-17T16:49:01.911Z,17.71
2022-11-17T16:51:28.837Z,17.76
2022-11-17T16:54:00.880Z,17.70
2022-11-17T16:56:28.340Z,17.74
2022-11-17T16:58:55.394Z,17.73
2022-11-17T17:01:24.585Z,17.72
2022-11-17T17:03:59.600Z,17.72
2022-11-17T17:06:27.332Z,17.75
2022-11-17T17:08:55.974Z,17.76
2022-11-17T17:11:23.232Z,17.73
2022-11-17T17:13:50.368Z,17.73
2022-11-17T17:16:19.733Z,17.63
2022-11-17T17:18:46.534Z,17.69
2022-11-17T17:21:18.894Z,17.67
2022-11-17T17:23:46.195Z,17.71
2022-11-17T17:26:17.557Z,17.63
2022-11-17T17:28:48.733Z,17.67
2022-11-17T17:31:21.972Z,17.63
2022-11-17T17:33:50.809Z,17.64
2022-11-17T17:36:22.474Z,17.74
2022-11-17T17:38:55.409Z,17.68
2022-11-17T17:41:25.286Z,17.68
2022-11-17T17:43:58.352Z,17.75
2022-11-17T17:46:26.079Z,17.85
2022-11-17T17:48:52.979Z,17.89
2022-11-17T17:51:21.414Z,17.93
2022-11-17T17:53:50.244Z,18.00
2022-11-17T17:56:19.688Z,17.97
2022-11-17T17:58:48.795Z,17.85
2022-11-17T18:01:20.996Z,17.87
2022-11-17T18:04:11.264Z,17.84
2022-11-17T18:06:42.836Z,17.81
2022-11-17T18:09:10.953Z,17.81
2022-11-17T18:11:45.772Z,17.87
2022-11-17T18:14:13.457Z,17.81
2022-11-17T18:16:40.964Z,17.82
2022-11-17T18:19:09.349Z,17.80
2022-11-17T18:21:36.580Z,17.86
2022-11-17T18:24:04.294Z,17.81
2022-11-17T18:26:35.641Z,17.83
2022-11-17T18:29:05.035Z,17.79
2022-11-17T18:31:33.824Z,17.93
2022-11-17T18:34:03.737Z,17.83
2022-11-17T18:36:30.989Z,17.82
2022-11-17T18:38:58.758Z,17.81
2022-11-17T18:41:27.338Z,17.74
2022-11-17T18:43:54.970Z,17.74
2022-11-17T18:46:23.551Z,17.75
2022-11-17T18:48:51.911Z,17.69
2022-11-17T18:51:21.423Z,17.69
2022-11-17T18:53:50.063Z,17.67
2022-11-17T18:56:19.277Z,17.67
2022-11-17T18:58:46.472Z,17.66
2022-11-17T19:01:17.213Z,17.63
2022-11-17T19:03:45.952Z,17.59
2022-11-17T19:06:14.213Z,17.62
2022-11-17T19:08:41.474Z,17.67
2022-11-17T19:11:09.746Z,17.63
2022-11-17T19:13:39.166Z,17.59
2022-11-17T19:16:09.373Z,17.59
2022-11-17T19:18:36.698Z,17.59
2022-11-17T19:21:12.228Z,17.58
2022-11-17T19:23:44.414Z,17.56
2022-11-17T19:26:16.222Z,17.54
2022-11-17T19:28:44.340Z,17.48
2022-11-17T19:31:14.056Z,17.47
2022-11-17T19:33:42.156Z,17.46
2022-11-17T19:36:18.122Z,17.54
2022-11-17T19:38:48.363Z,17.47
2022-11-17T19:41:21.334Z,17.50
2022-11-17T19:43:48.943Z,17.47
2022-11-17T19:46:17.222Z,17.50
2022-11-17T19:48:44.555Z,17.46
2022-11-17T19:51:31.781Z,17.42
2022-11-17T19:54:02.274Z,17.40
2022-11-17T19:56:29.360Z,17.42
2022-11-17T19:58:58.017Z,17.42
2022-11-17T20:01:27.680Z,17.40
2022-11-17T20:03:55.812Z,17.38
2022-11-17T20:06:27.378Z,17.38
2022-11-17T20:08:56.111Z,17.37
2022-11-17T20:11:27.862Z,17.38
2022-11-17T20:13:56.199Z,17.35
2022-11-17T20:16:27.410Z,17.44
2022-11-17T20:19:00.292Z,17.37
2022-11-17T20:21:29.260Z,17.35
2022-11-17T20:23:57.462Z,17.34
2022-11-17T20:26:27.469Z,17.42
2022-11-17T20:28:55.354Z,17.42
2022-11-17T20:31:24.528Z,17.37
2022-11-17T20:33:52.321Z,17.35
2022-11-17T20:36:21.517Z,17.33
2022-11-17T20:38:52.553Z,17.35
2022-11-17T20:41:21.090Z,17.28
2022-11-17T20:43:49.986Z,17.23
2022-11-17T20:46:17.614Z,17.31
2022-11-17T20:48:44.880Z,17.52
2022-11-17T20:51:14.982Z,17.62
2022-11-17T20:53:42.038Z,17.67
2022-11-17T20:56:10.423Z,17.65
2022-11-17T20:58:37.409Z,17.73
2022-11-17T21:01:16.033Z,17.74
2022-11-17T21:03:43.658Z,17.80
2022-11-17T21:06:11.431Z,17.84
2022-11-17T21:08:40.047Z,17.85
2022-11-17T21:11:09.913Z,17.87
2022-11-17T21:13:37.969Z,17.93
2022-11-17T21:16:06.557Z,17.90
2022-11-17T21:18:34.104Z,17.88
2022-11-17T21:21:02.591Z,17.90
2022-11-17T21:23:29.298Z,17.90
2022-11-17T21:25:56.426Z,17.86
2022-11-17T21:28:23.354Z,17.82
2022-11-17T21:30:50.817Z,17.87
2022-11-17T21:33:17.723Z,17.88
2022-11-17T21:35:44.515Z,17.83
2022-11-17T21:38:11.389Z,17.90
2022-11-17T21:40:38.366Z,17.89
2022-11-17T21:43:05.215Z,17.95
2022-11-17T21:45:32.975Z,18.02
2022-11-17T21:47:59.899Z,17.94
2022-11-17T21:50:27.029Z,17.98
2022-11-17T21:52:53.789Z,17.93
2022-11-17T21:55:20.572Z,18.02
2022-11-17T21:57:50.499Z,17.97
2022-11-17T22:00:17.960Z,17.84
2022-11-17T22:02:44.761Z,17.69
2022-11-17T22:05:11.978Z,17.68
2022-11-17T22:07:39.010Z,17.64
2022-11-17T22:10:06.182Z,17.59
2022-11-17T22:12:33.109Z,17.57
2022-11-17T22:14:59.966Z,17.58
2022-11-17T22:17:26.938Z,17.50
2022-11-17T22:19:53.660Z,17.47
2022-11-17T22:22:20.443Z,17.44
2022-11-17T22:24:49.974Z,17.38
2022-11-17T22:27:16.946Z,17.30
2022-11-17T22:29:43.715Z,17.32
2022-11-17T22:32:10.689Z,17.27
2022-11-17T22:34:37.448Z,17.26
2022-11-17T22:37:04.224Z,17.18
2022-11-17T22:39:30.987Z,17.16
2022-11-17T22:41:57.713Z,17.12
2022-11-17T22:44:25.077Z,17.11
2022-11-17T22:46:51.941Z,17.13
2022-11-17T22:49:19.062Z,17.10
2022-11-17T22:52:04.173Z,17.06
2022-11-17T22:54:31.577Z,17.04
2022-11-17T22:56:58.781Z,17.00
2022-11-17T22:59:27.222Z,17.00
2022-11-17T23:01:54.530Z,16.97
2022-11-17T23:04:23.137Z,16.96
2022-11-17T23:06:49.977Z,16.96
2022-11-17T23:09:16.759Z,16.93
2022-11-17T23:11:43.843Z,16.90
2022-11-17T23:14:12.741Z,16.88
2022-11-17T23:16:40.330Z,16.86
2022-11-17T23:19:09.465Z,16.83
2022-11-17T23:21:36.493Z,16.83
2022-11-17T23:24:04.396Z,16.79
2022-11-17T23:26:31.206Z,16.77
2022-11-17T23:28:58.293Z,16.76
2022-11-17T23:31:27.330Z,16.75
2022-11-17T23:33:54.243Z,16.75
2022-11-17T23:36:22.252Z,16.71
2022-11-17T23:38:50.533Z,16.70
2022-11-17T23:41:19.951Z,16.67
2022-11-17T23:43:46.918Z,16.68
2022-11-17T23:46:15.905Z,16.66
2022-11-17T23:48:43.968Z,16.63
2022-11-17T23:51:13.946Z,16.63
2022-11-17T23:53:41.531Z,16.60
2022-11-17T23:56:08.906Z,16.58
2022-11-17T23:58:36.135Z,16.57
